Time;durP1;ratioP1;P1;durP2;ratioP2;P2;SDS_P1;SDS_P2;PMS_P1;PMS_P2;Temp;Humidity;BMP_temperature;BMP_pressure;BME280_temperature;BME280_humidity;BME280_pressure;Samples;Min_cycle;Max_cycle;Signal;HPM_P1;HPM_P2
2022/02/16 00:02:11;;;;;;;76.45;32.88;;;307.40;2278.40;;;;;;4972546;28;20027;-59
2022/02/16 00:04:39;;;;;;;65.30;31.95;;;307.30;2304.00;;;;;;4972386;28;20015;-59
2022/02/16 00:07:06;;;;;;;70.20;33.22;;;307.20;2304.00;;;;;;4972659;28;20106;-57
2022/02/16 00:09:32;;;;;;;81.78;34.85;;;307.20;2304.00;;;;;;4972997;28;20039;-56
2022/02/16 00:12:00;;;;;;;57.35;26.20;;;307.30;2304.00;;;;;;4972240;28;20033;-58
2022/02/16 00:14:27;;;;;;;69.55;33.42;;;307.30;2304.00;;;;;;4972249;28;20374;-58
2022/02/16 00:16:53;;;;;;;59.78;27.42;;;307.40;2278.40;;;;;;4972531;28;20019;-61
2022/02/16 00:19:19;;;;;;;75.68;34.30;;;307.50;2278.40;;;;;;4972089;28;20132;-60
2022/02/16 00:21:45;;;;;;;49.00;24.38;;;307.60;2252.80;;;;;;4972429;28;20486;-58
2022/02/16 00:24:10;;;;;;;19.25;11.20;;;307.50;2227.20;;;;;;4972605;28;20027;-55
2022/02/16 00:26:36;;;;;;;55.30;27.52;;;307.60;2227.20;;;;;;4971843;28;20512;-57
2022/02/16 00:29:02;;;;;;;39.38;21.50;;;307.60;2227.20;;;;;;4972350;28;20035;-57
2022/02/16 00:31:28;;;;;;;44.33;22.45;;;307.60;2252.80;;;;;;4971974;28;20019;-59
2022/02/16 00:33:53;;;;;;;36.92;21.90;;;307.60;2252.80;;;;;;4972069;28;20041;-59
2022/02/16 00:36:19;;;;;;;25.95;15.35;;;307.70;2227.20;;;;;;4971923;28;20397;-58
2022/02/16 00:38:45;;;;;;;32.83;17.55;;;307.60;2227.20;;;;;;4971917;28;20474;-59
2022/02/16 00:41:10;;;;;;;34.10;18.17;;;307.70;2227.20;;;;;;4972139;28;20054;-58
2022/02/16 00:43:36;;;;;;;43.90;23.08;;;307.70;2201.60;;;;;;4971586;28;20377;-60
2022/02/16 00:46:02;;;;;;;33.83;16.00;;;307.80;2201.60;;;;;;4971982;28;20019;-60
2022/02/16 00:48:28;;;;;;;37.00;20.23;;;307.80;2201.60;;;;;;4971534;28;20038;-58
2022/02/16 00:50:53;;;;;;;32.72;19.27;;;307.90;2201.60;;;;;;4971622;28;20027;-60
2022/02/16 00:53:19;;;;;;;141.90;99.15;;;307.90;2201.60;;;;;;4952956;28;20381;-58
2022/02/16 00:55:46;;;;;;;151.70;103.13;;;307.20;2304.00;;;;;;4971666;28;21026;-59
2022/02/16 00:58:12;;;;;;;144.93;97.80;;;282.50;2278.40;;;;;;4971808;28;20037;-59
2022/02/16 01:00:38;;;;;;;108.15;75.05;;;307.20;2304.00;;;;;;4971146;28;20038;-57
2022/02/16 01:03:04;;;;;;;109.20;71.38;;;282.40;2278.40;;;;;;4971533;28;20050;-60
2022/02/16 01:05:30;;;;;;;79.03;51.67;;;282.40;2278.40;;;;;;4971413;28;20082;-57
2022/02/16 01:07:57;;;;;;;65.07;44.90;;;282.50;2278.40;;;;;;4971034;28;20126;-59
2022/02/16 01:10:23;;;;;;;40.47;26.23;;;282.50;2278.40;;;;;;4971399;28;20026;-62
2022/02/16 01:12:49;;;;;;;41.33;29.00;;;307.30;2304.00;;;;;;4971230;28;20031;-60
2022/02/16 01:15:15;;;;;;;38.58;23.38;;;307.40;2304.00;;;;;;4971356;28;20362;-59
2022/02/16 01:17:41;;;;;;;19.20;11.25;;;307.50;2304.00;;;;;;4968786;28;20033;-59
2022/02/16 01:20:07;;;;;;;24.23;15.05;;;307.60;2304.00;;;;;;4970047;28;20023;-61
2022/02/16 01:22:33;;;;;;;25.98;17.25;;;307.60;2304.00;;;;;;4971184;28;20030;-61
2022/02/16 01:24:59;;;;;;;26.58;18.15;;;307.50;2304.00;;;;;;4970843;28;20073;-61
2022/02/16 01:27:25;;;;;;;43.08;30.65;;;307.30;2304.00;;;;;;4972219;28;20065;-63
2022/02/16 01:29:50;;;;;;;63.92;41.60;;;307.20;2304.00;;;;;;4972056;28;20031;-62
2022/02/16 01:32:16;;;;;;;63.92;43.97;;;282.50;2278.40;;;;;;4972104;28;20493;-60
2022/02/16 01:34:42;;;;;;;43.03;28.80;;;282.20;2278.40;;;;;;4972096;28;20481;-62
2022/02/16 01:37:08;;;;;;;39.38;28.67;;;282.10;2278.40;;;;;;4972246;28;20085;-62
2022/02/16 01:39:34;;;;;;;21.73;14.45;;;282.00;2278.40;;;;;;4972152;28;20504;-59
2022/02/16 01:42:00;;;;;;;10.57;7.93;;;282.10;2278.40;;;;;;4971794;28;20022;-60
2022/02/16 01:44:26;;;;;;;6.47;4.25;;;282.20;2278.40;;;;;;4971989;28;20039;-61
2022/02/16 01:46:55;;;;;;;10.45;8.75;;;282.20;2278.40;;;;;;4954824;28;20033;-58
2022/02/16 01:49:21;;;;;;;9.10;5.57;;;282.10;2278.40;;;;;;4971866;28;20023;-61
2022/02/16 01:51:47;;;;;;;11.95;6.15;;;282.00;2278.40;;;;;;4972231;28;20027;-62
2022/02/16 01:54:14;;;;;;;9.10;5.53;;;281.90;2278.40;;;;;;4972457;28;20085;-59
2022/02/16 01:56:45;;;;;;;9.48;4.70;;;281.80;2278.40;;;;;;4954690;28;20034;-58
2022/02/16 01:59:12;;;;;;;19.23;9.80;;;;;;;;;;4971970;28;20081;-58
2022/02/16 02:01:39;;;;;;;10.50;4.57;;;;;;;;;;4971582;28;20062;-61
2022/02/16 02:04:05;;;;;;;11.02;7.80;;;282.40;2278.40;;;;;;4971911;28;20061;-60
2022/02/16 02:06:31;;;;;;;16.42;8.55;;;;;;;;;;4972524;28;20049;-59
2022/02/16 02:08:57;;;;;;;19.88;13.23;;;282.00;2278.40;;;;;;4971548;28;20070;-61
2022/02/16 02:11:23;;;;;;;19.25;11.80;;;281.80;2278.40;;;;;;4971585;28;20048;-60
2022/02/16 02:13:54;;;;;;;19.00;10.88;;;281.90;2278.40;;;;;;4971548;28;20065;-58
2022/02/16 02:16:20;;;;;;;11.68;7.10;;;281.90;2278.40;;;;;;4971471;28;20023;-59
2022/02/16 02:18:46;;;;;;;11.70;5.97;;;281.70;2278.40;;;;;;4971467;28;20089;-59
2022/02/16 02:21:11;;;;;;;11.43;6.68;;;281.80;2278.40;;;;;;4971622;28;20536;-62
2022/02/16 02:23:37;;;;;;;18.98;16.63;;;256.80;2252.80;;;;;;4971597;28;20026;-62
2022/02/16 02:26:03;;;;;;;6.60;4.40;;;256.80;2252.80;;;;;;4971616;28;20030;-60
2022/02/16 02:28:29;;;;;;;8.13;4.10;;;256.80;2252.80;;;;;;4971113;28;20505;-60
2022/02/16 02:30:55;;;;;;;6.00;3.53;;;256.70;2252.80;;;;;;4971531;28;20031;-58
2022/02/16 02:33:21;;;;;;;6.47;4.40;;;256.70;2252.80;;;;;;4971469;28;20465;-61
2022/02/16 02:35:49;;;;;;;4.88;3.33;;;256.70;2252.80;;;;;;4971065;28;20023;-61
2022/02/16 02:38:14;;;;;;;8.27;3.97;;;256.70;2252.80;;;;;;4971312;28;20027;-61
2022/02/16 02:40:40;;;;;;;5.88;3.45;;;256.90;2252.80;;;;;;4971326;28;20023;-63
2022/02/16 02:43:07;;;;;;;4.68;2.83;;;256.80;2252.80;;;;;;4971177;28;20027;-58
2022/02/16 02:45:33;;;;;;;9.30;7.43;;;256.90;2252.80;;;;;;4971516;28;20039;-57
2022/02/16 02:47:59;;;;;;;9.40;4.25;;;256.90;2252.80;;;;;;4971199;28;20118;-62
2022/02/16 02:50:25;;;;;;;7.18;4.28;;;256.90;2252.80;;;;;;4971261;28;20533;-62
2022/02/16 02:52:50;;;;;;;17.52;9.98;;;281.60;2278.40;;;;;;4971429;28;20030;-62
2022/02/16 02:55:16;;;;;;;7.28;4.70;;;281.60;2278.40;;;;;;4971179;28;20540;-61
2022/02/16 02:57:43;;;;;;;7.90;5.35;;;256.90;2252.80;;;;;;4971274;28;20500;-62
2022/02/16 03:00:10;;;;;;;8.48;4.50;;;256.90;2252.80;;;;;;4970775;28;20122;-62
2022/02/16 03:02:37;;;;;;;10.13;4.75;;;256.90;2252.80;;;;;;4970820;28;20105;-60
2022/02/16 03:05:03;;;;;;;10.05;4.38;;;256.90;2252.80;;;;;;4971150;28;20029;-61
2022/02/16 03:07:29;;;;;;;9.18;4.20;;;256.90;2252.80;;;;;;4970847;28;20078;-63
2022/02/16 03:09:55;;;;;;;6.03;3.92;;;256.90;2252.80;;;;;;4972489;28;20027;-63
2022/02/16 03:12:21;;;;;;;6.32;3.83;;;256.90;2252.80;;;;;;4973847;28;20035;-62
2022/02/16 03:14:47;;;;;;;5.53;4.63;;;256.90;2252.80;;;;;;4973374;28;20358;-65
2022/02/16 03:17:12;;;;;;;5.30;3.95;;;256.70;2252.80;;;;;;4973992;28;20057;-67
2022/02/16 03:19:38;;;;;;;7.82;4.32;;;256.70;2252.80;;;;;;4975832;28;20035;-63
2022/02/16 03:22:04;;;;;;;6.50;4.10;;;256.80;2252.80;;;;;;4974978;28;20030;-57
2022/02/16 03:24:30;;;;;;;5.85;4.35;;;256.90;2252.80;;;;;;4974657;28;20034;-57
2022/02/16 03:26:56;;;;;;;8.45;4.25;;;256.80;2252.80;;;;;;4974577;28;20385;-58
2022/02/16 03:29:21;;;;;;;7.18;4.47;;;256.90;2252.80;;;;;;4974614;28;20109;-58
2022/02/16 03:31:47;;;;;;;7.47;4.57;;;256.90;2252.80;;;;;;4974453;28;20063;-58
2022/02/16 03:34:14;;;;;;;8.07;5.10;;;281.60;2278.40;;;;;;4974794;28;20034;-57
2022/02/16 03:36:39;;;;;;;8.32;5.65;;;281.70;2278.40;;;;;;4974275;28;20116;-58
2022/02/16 03:39:05;;;;;;;7.07;5.53;;;281.70;2278.40;;;;;;4974620;28;20055;-58
2022/02/16 03:41:31;;;;;;;8.85;5.35;;;281.90;2278.40;;;;;;4974456;28;20109;-58
2022/02/16 03:43:57;;;;;;;9.13;5.25;;;281.60;2278.40;;;;;;4974113;28;20454;-58
2022/02/16 03:46:23;;;;;;;9.10;5.55;;;281.60;2278.40;;;;;;4974449;28;20022;-58
2022/02/16 03:48:48;;;;;;;8.88;5.43;;;281.70;2278.40;;;;;;4974395;28;20042;-57
2022/02/16 03:51:16;;;;;;;12.38;6.47;;;281.60;2278.40;;;;;;4974492;28;20101;-57
2022/02/16 03:53:42;;;;;;;10.77;6.43;;;281.70;2278.40;;;;;;4974675;28;20030;-57
2022/02/16 03:56:08;;;;;;;9.38;6.30;;;281.60;2278.40;;;;;;4974274;28;20034;-58
2022/02/16 03:58:34;;;;;;;12.40;7.85;;;281.70;2278.40;;;;;;4973882;28;20401;-58
2022/02/16 04:01:00;;;;;;;11.52;8.32;;;281.70;2278.40;;;;;;4973839;28;20059;-57
2022/02/16 04:03:25;;;;;;;11.90;8.15;;;281.70;2278.40;;;;;;4974222;28;20019;-58
2022/02/16 04:05:51;;;;;;;15.80;12.70;;;281.70;2278.40;;;;;;4974226;28;20034;-58
2022/02/16 04:08:17;;;;;;;17.25;12.57;;;281.70;2278.40;;;;;;4973888;28;20058;-58
2022/02/16 04:10:42;;;;;;;15.30;11.13;;;281.60;2278.40;;;;;;4956677;28;20038;-58
2022/02/16 04:13:08;;;;;;;33.78;23.85;;;281.70;2278.40;;;;;;4973805;28;20531;-58
2022/02/16 04:15:36;;;;;;;40.63;26.67;;;281.70;2278.40;;;;;;4973900;28;20085;-58
2022/02/16 04:18:02;;;;;;;34.97;22.73;;;256.50;2252.80;;;;;;4973801;28;20042;-58
2022/02/16 04:20:28;;;;;;;42.33;26.17;;;281.60;2278.40;;;;;;4973656;28;20054;-58
2022/02/16 04:22:54;;;;;;;47.42;33.80;;;281.70;2278.40;;;;;;4973688;28;20473;-58
2022/02/16 04:25:20;;;;;;;49.03;28.48;;;281.70;2278.40;;;;;;4973632;28;20388;-58
2022/02/16 04:27:46;;;;;;;35.53;22.58;;;281.70;2278.40;;;;;;4973201;28;20035;-59
2022/02/16 04:30:12;;;;;;;38.50;25.73;;;281.70;2278.40;;;;;;4973051;28;20023;-57
2022/02/16 04:32:38;;;;;;;38.97;23.83;;;281.70;2278.40;;;;;;4973474;28;20030;-58
2022/02/16 04:35:06;;;;;;;41.70;23.95;;;281.70;2278.40;;;;;;4973666;28;20500;-57
2022/02/16 04:37:31;;;;;;;36.08;20.50;;;281.70;2278.40;;;;;;4973281;28;20050;-57
2022/02/16 04:39:57;;;;;;;38.42;22.33;;;281.70;2278.40;;;;;;4973368;28;20054;-58
2022/02/16 04:42:24;;;;;;;36.35;22.75;;;281.70;2278.40;;;;;;4973334;28;20376;-58
2022/02/16 04:44:51;;;;;;;38.88;22.40;;;281.70;2278.40;;;;;;4973266;28;20090;-58
2022/02/16 04:47:16;;;;;;;31.25;21.60;;;281.70;2278.40;;;;;;4973098;28;20067;-59
2022/02/16 04:49:42;;;;;;;20.67;13.60;;;281.60;2278.40;;;;;;4973455;28;20027;-58
2022/02/16 04:52:08;;;;;;;23.00;13.80;;;256.90;2252.80;;;;;;4973112;28;20469;-59
2022/02/16 04:54:34;;;;;;;45.20;22.25;;;256.80;2252.80;;;;;;4973140;28;20034;-60
2022/02/16 04:57:00;;;;;;;40.72;28.23;;;256.70;2252.80;;;;;;4972493;28;20038;-59
2022/02/16 04:59:25;;;;;;;44.92;29.45;;;256.70;2252.80;;;;;;4972946;28;20027;-59
2022/02/16 05:01:51;;;;;;;37.70;22.15;;;256.70;2252.80;;;;;;4955093;28;20528;-60
2022/02/16 05:04:17;;;;;;;21.92;14.75;;;256.70;2252.80;;;;;;4972901;28;20027;-59
2022/02/16 05:06:44;;;;;;;23.58;12.30;;;256.70;2252.80;;;;;;4973140;28;20046;-59
2022/02/16 05:09:10;;;;;;;24.95;14.32;;;256.70;2252.80;;;;;;4972626;28;20046;-58
2022/02/16 05:11:36;;;;;;;27.85;14.93;;;256.70;2252.80;;;;;;4973101;28;20027;-58
2022/02/16 05:14:02;;;;;;;32.05;16.42;;;256.60;2252.80;;;;;;4972848;28;20058;-58
2022/02/16 05:16:27;;;;;;;28.83;16.90;;;256.60;2252.80;;;;;;4972559;28;20026;-58
2022/02/16 05:18:55;;;;;;;37.88;25.38;;;256.60;2252.80;;;;;;4972799;28;20098;-58
2022/02/16 05:21:22;;;;;;;33.72;17.92;;;256.50;2252.80;;;;;;4972608;28;20066;-59
2022/02/16 05:23:48;;;;;;;15.48;8.93;;;256.50;2252.80;;;;;;4972373;28;20031;-58
2022/02/16 05:26:13;;;;;;;32.95;21.45;;;256.60;2252.80;;;;;;4972871;28;20105;-58
2022/02/16 05:28:39;;;;;;;22.92;14.07;;;256.50;2252.80;;;;;;4972032;28;20104;-57
2022/02/16 05:31:05;;;;;;;24.38;14.90;;;256.50;2252.80;;;;;;4972413;28;20027;-57
2022/02/16 05:33:31;;;;;;;22.70;12.13;;;256.40;2252.80;;;;;;4972561;28;20042;-58
2022/02/16 05:35:57;;;;;;;25.95;14.55;;;256.30;2252.80;;;;;;4972173;28;20354;-59
2022/02/16 05:38:23;;;;;;;22.77;13.02;;;256.20;2252.80;;;;;;4972106;28;20079;-57
2022/02/16 05:40:49;;;;;;;30.15;13.00;;;256.20;2252.80;;;;;;4971723;28;20161;-62
2022/02/16 05:43:15;;;;;;;26.15;13.13;;;256.20;2252.80;;;;;;4972097;28;20078;-59
2022/02/16 05:45:41;;;;;;;26.08;14.10;;;256.20;2252.80;;;;;;4972174;28;20015;-60
2022/02/16 05:48:07;;;;;;;27.15;13.18;;;256.20;2252.80;;;;;;4972079;28;20035;-58
2022/02/16 05:50:33;;;;;;;29.08;13.55;;;256.30;2252.80;;;;;;4972109;28;20429;-62
2022/02/16 05:52:59;;;;;;;40.22;21.52;;;256.30;2252.80;;;;;;4971932;28;20031;-61
2022/02/16 05:55:25;;;;;;;28.63;15.60;;;256.50;2252.80;;;;;;4972209;28;20149;-63
2022/02/16 05:57:51;;;;;;;28.98;15.55;;;256.50;2252.80;;;;;;4971689;28;20473;-62
2022/02/16 06:00:17;;;;;;;15.00;9.57;;;256.70;2252.80;;;;;;4971495;28;20126;-60
2022/02/16 06:02:42;;;;;;;15.10;7.68;;;256.70;2252.80;;;;;;4972159;28;20030;-63
2022/02/16 06:05:09;;;;;;;20.40;14.20;;;256.50;2252.80;;;;;;4971800;28;20109;-61
2022/02/16 06:07:34;;;;;;;24.48;16.30;;;256.70;2252.80;;;;;;4971930;28;20074;-62
2022/02/16 06:10:00;;;;;;;27.73;19.92;;;256.80;2252.80;;;;;;4971557;28;20529;-61
2022/02/16 06:12:26;;;;;;;44.22;29.75;;;256.50;2252.80;;;;;;4971776;28;20125;-61
2022/02/16 06:14:52;;;;;;;73.60;47.22;;;256.70;2252.80;;;;;;4971765;28;20041;-58
2022/02/16 06:17:17;;;;;;;65.05;44.65;;;256.50;2252.80;;;;;;4971582;28;20533;-58
2022/02/16 06:19:43;;;;;;;64.88;42.90;;;256.50;2252.80;;;;;;4971835;28;20425;-61
2022/02/16 06:22:09;;;;;;;56.30;36.35;;;256.60;2252.80;;;;;;4971463;28;20504;-57
2022/02/16 06:24:36;;;;;;;36.15;25.90;;;256.50;2252.80;;;;;;4971528;28;20070;-58
2022/02/16 06:27:02;;;;;;;35.72;25.70;;;256.50;2252.80;;;;;;4971576;28;20429;-59
2022/02/16 06:29:27;;;;;;;77.65;48.78;;;256.80;2252.80;;;;;;4971110;28;20030;-58
2022/02/16 06:31:53;;;;;;;109.28;65.65;;;256.90;2252.80;;;;;;4971515;28;20034;-57
2022/02/16 06:34:19;;;;;;;67.25;48.35;;;256.90;2252.80;;;;;;4971328;28;20073;-58
2022/02/16 06:36:45;;;;;;;68.57;49.97;;;256.90;2252.80;;;;;;4971559;28;20110;-60
2022/02/16 06:39:10;;;;;;;72.18;51.35;;;256.90;2252.80;;;;;;4971212;28;20488;-59
2022/02/16 06:41:36;;;;;;;77.13;61.83;;;281.60;2278.40;;;;;;4971335;28;20418;-60
2022/02/16 06:44:02;;;;;;;79.03;56.58;;;281.60;2278.40;;;;;;4971135;28;20046;-59
2022/02/16 06:46:28;;;;;;;85.13;62.95;;;281.70;2278.40;;;;;;4971247;28;20058;-58
2022/02/16 06:48:54;;;;;;;94.25;69.93;;;281.60;2278.40;;;;;;4971454;28;20375;-58
2022/02/16 06:51:19;;;;;;;104.28;74.95;;;281.70;2278.40;;;;;;4971478;28;20422;-60
2022/02/16 06:53:46;;;;;;;98.32;77.00;;;281.80;2278.40;;;;;;4975317;28;20426;-59
2022/02/16 06:56:12;;;;;;;96.65;82.95;;;281.90;2278.40;;;;;;4975414;28;20101;-59
2022/02/16 06:58:38;;;;;;;93.47;73.03;;;282.00;2278.40;;;;;;4974714;28;20026;-60
2022/02/16 07:01:04;;;;;;;82.45;61.75;;;282.00;2278.40;;;;;;4975104;28;20137;-60
2022/02/16 07:03:29;;;;;;;58.15;44.13;;;281.90;2278.40;;;;;;4974976;28;20034;-58
2022/02/16 07:05:55;;;;;;;122.53;89.43;;;282.10;2278.40;;;;;;4975172;28;20033;-57
2022/02/16 07:08:21;;;;;;;33.90;24.40;;;282.10;2278.40;;;;;;4976187;28;20539;-61
2022/02/16 07:10:47;;;;;;;36.88;30.50;;;282.00;2278.40;;;;;;4976188;28;20030;-59
2022/02/16 07:13:13;;;;;;;48.05;33.17;;;282.20;2278.40;;;;;;4976413;28;20027;-61
2022/02/16 07:15:39;;;;;;;59.60;44.78;;;282.30;2278.40;;;;;;4976180;28;20492;-59
2022/02/16 07:18:05;;;;;;;42.75;33.78;;;282.30;2278.40;;;;;;4975915;28;20030;-61
2022/02/16 07:20:32;;;;;;;35.90;29.33;;;282.30;2278.40;;;;;;4974616;28;20488;-58
2022/02/16 07:22:58;;;;;;;38.38;25.27;;;282.20;2278.40;;;;;;4974096;28;20039;-58
2022/02/16 07:25:25;;;;;;;31.83;24.25;;;281.90;2278.40;;;;;;4973811;28;20050;-63
2022/02/16 07:27:51;;;;;;;29.50;20.90;;;282.00;2278.40;;;;;;4973506;28;20042;-58
2022/02/16 07:30:17;;;;;;;101.22;72.88;;;282.30;2278.40;;;;;;4973426;28;20035;-58
2022/02/16 07:32:43;;;;;;;80.45;66.07;;;282.40;2278.40;;;;;;4973794;28;20031;-57
2022/02/16 07:35:11;;;;;;;26.33;18.52;;;282.50;2278.40;;;;;;4973436;28;20038;-57
2022/02/16 07:37:37;;;;;;;16.70;15.05;;;307.20;2304.00;;;;;;4955922;28;20035;-58
2022/02/16 07:40:04;;;;;;;19.90;13.45;;;282.50;2278.40;;;;;;4973650;28;20027;-60
2022/02/16 07:42:31;;;;;;;20.25;15.07;;;282.30;2278.40;;;;;;4973127;28;20054;-59
2022/02/16 07:44:57;;;;;;;26.85;19.58;;;282.40;2278.40;;;;;;4973239;28;20045;-57
2022/02/16 07:47:23;;;;;;;110.55;89.00;;;282.40;2278.40;;;;;;4973266;28;20039;-57
2022/02/16 07:49:49;;;;;;;36.25;29.38;;;282.40;2278.40;;;;;;4973095;28;20039;-58
2022/02/16 07:52:15;;;;;;;27.50;18.75;;;282.40;2278.40;;;;;;4973500;28;20030;-57
2022/02/16 07:54:42;;;;;;;19.33;13.45;;;282.40;2278.40;;;;;;4973342;28;20385;-57
2022/02/16 07:57:08;;;;;;;15.70;12.25;;;282.00;2278.40;;;;;;4972941;28;20023;-57
2022/02/16 07:59:35;;;;;;;20.13;14.23;;;282.00;2278.40;;;;;;4973340;28;20047;-58
2022/02/16 08:02:03;;;;;;;25.10;15.82;;;281.80;2278.40;;;;;;4973091;28;20402;-58
2022/02/16 08:04:30;;;;;;;20.25;14.55;;;281.90;2278.40;;;;;;4972980;28;20038;-58
2022/02/16 08:06:56;;;;;;;18.20;13.95;;;282.10;2278.40;;;;;;4972902;28;20023;-57
2022/02/16 08:09:22;;;;;;;22.95;12.65;;;282.10;2278.40;;;;;;4972982;28;20027;-58
2022/02/16 08:11:48;;;;;;;31.38;22.63;;;282.10;2278.40;;;;;;4972790;28;20026;-56
2022/02/16 08:14:15;;;;;;;25.17;19.15;;;282.30;2278.40;;;;;;4955035;28;20164;-58
2022/02/16 08:16:41;;;;;;;15.30;11.70;;;282.50;2278.40;;;;;;4972839;28;20031;-59
2022/02/16 08:19:09;;;;;;;12.70;9.27;;;307.20;2304.00;;;;;;4972824;28;20102;-58
2022/02/16 08:21:36;;;;;;;13.55;10.13;;;307.20;2304.00;;;;;;4972831;28;20429;-58
2022/02/16 08:24:03;;;;;;;13.45;8.45;;;307.30;2304.00;;;;;;4972595;28;20031;-62
2022/02/16 08:26:29;;;;;;;14.15;9.57;;;307.50;2304.00;;;;;;4972352;28;20038;-57
2022/02/16 08:28:55;;;;;;;15.80;11.15;;;307.50;2304.00;;;;;;4972003;28;20555;-58
2022/02/16 08:31:22;;;;;;;15.57;11.00;;;307.40;2304.00;;;;;;4972602;28;20061;-58
2022/02/16 08:33:48;;;;;;;15.50;12.30;;;307.50;2304.00;;;;;;4972305;28;20033;-57
2022/02/16 08:36:15;;;;;;;20.92;15.30;;;307.70;2304.00;;;;;;4972674;28;20031;-58
2022/02/16 08:38:41;;;;;;;19.95;14.40;;;307.80;2304.00;;;;;;4972627;28;20022;-58
2022/02/16 08:41:08;;;;;;;13.48;9.23;;;307.90;2304.00;;;;;;4972383;28;20098;-59
2022/02/16 08:43:34;;;;;;;15.65;10.32;;;307.80;2304.00;;;;;;4973224;28;20060;-57
2022/02/16 08:46:00;;;;;;;14.95;9.93;;;308.10;2304.00;;;;;;4973192;28;20385;-59
2022/02/16 08:48:28;;;;;;;66.85;50.97;;;333.10;2329.60;;;;;;4973166;28;20057;-58
2022/02/16 08:50:56;;;;;;;39.08;26.40;;;333.20;2329.60;;;;;;4973267;28;20022;-57
2022/02/16 08:53:22;;;;;;;10.48;7.65;;;333.40;2329.60;;;;;;4973103;28;20027;-58
2022/02/16 08:55:51;;;;;;;22.63;14.07;;;333.40;2329.60;;;;;;4972830;28;20018;-62
2022/02/16 08:58:19;;;;;;;113.75;78.18;;;333.70;2329.60;;;;;;4972924;28;20027;-57
2022/02/16 09:00:45;;;;;;;75.78;47.90;;;358.50;2329.60;;;;;;4972911;28;20109;-56
2022/02/16 09:03:11;;;;;;;16.80;12.63;;;358.60;2329.60;;;;;;4972897;28;20436;-59
2022/02/16 09:05:36;;;;;;;12.13;10.25;;;358.60;2329.60;;;;;;4972503;28;20019;-59
2022/02/16 09:08:03;;;;;;;17.75;12.52;;;358.60;2329.60;;;;;;4972753;28;20054;-58
2022/02/16 09:10:29;;;;;;;13.07;11.10;;;358.80;2329.60;;;;;;4972791;28;20023;-58
2022/02/16 09:12:55;;;;;;;14.07;12.57;;;358.90;2329.60;;;;;;4972911;28;20483;-59
2022/02/16 09:15:25;;;;;;;9.13;7.07;;;359.20;2329.60;;;;;;4972366;28;20035;-58
2022/02/16 09:17:52;;;;;;;10.63;8.68;;;359.20;2329.60;;;;;;4972458;28;20106;-60
2022/02/16 09:20:18;;;;;;;12.38;9.32;;;359.20;2329.60;;;;;;4972440;28;20366;-60
2022/02/16 09:22:44;;;;;;;13.57;10.32;;;359.10;2329.60;;;;;;4972584;28;20118;-59
2022/02/16 09:25:10;;;;;;;11.30;9.27;;;359.30;2329.60;;;;;;4972276;28;20031;-59
2022/02/16 09:27:36;;;;;;;24.10;21.77;;;359.20;2329.60;;;;;;4972346;28;20078;-58
2022/02/16 09:30:02;;;;;;;27.30;22.88;;;359.30;2329.60;;;;;;4972261;28;20622;-63
2022/02/16 09:32:28;;;;;;;24.05;16.30;;;384.10;2329.60;;;;;;4972437;28;20393;-59
2022/02/16 09:34:55;;;;;;;17.02;11.38;;;384.30;2329.60;;;;;;4972361;28;20019;-58
2022/02/16 09:37:21;;;;;;;38.10;25.88;;;384.20;2329.60;;;;;;4971966;28;20042;-59
2022/02/16 09:39:47;;;;;;;38.17;32.35;;;384.10;2329.60;;;;;;4971950;28;20054;-59
2022/02/16 09:42:13;;;;;;;27.13;20.67;;;384.00;2329.60;;;;;;4972491;28;20113;-61
2022/02/16 09:44:53;;;;;;;33.67;23.92;;;359.30;2329.60;;;;;;4971790;28;20023;-59
2022/02/16 09:47:19;;;;;;;16.23;11.07;;;384.20;2329.60;;;;;;4971758;28;20034;-58
2022/02/16 09:49:45;;;;;;;30.58;18.42;;;384.00;2329.60;;;;;;4972069;28;20118;-59
2022/02/16 09:52:12;;;;;;;25.13;14.88;;;384.00;2329.60;;;;;;4972004;28;20055;-59
2022/02/16 09:54:38;;;;;;;23.02;14.40;;;384.00;2329.60;;;;;;4971800;28;20037;-58
2022/02/16 09:57:05;;;;;;;22.98;13.40;;;384.10;2329.60;;;;;;4972287;28;20053;-59
2022/02/16 09:59:31;;;;;;;19.67;12.57;;;384.20;2329.60;;;;;;4971389;28;20035;-58
2022/02/16 10:02:07;;;;;;;13.13;9.07;;;384.00;2329.60;;;;;;4971898;28;20035;-59
2022/02/16 10:04:35;;;;;;;12.43;8.68;;;384.10;2329.60;;;;;;4971956;28;20106;-58
2022/02/16 10:07:02;;;;;;;13.57;11.73;;;384.30;2329.60;;;;;;4971648;28;20022;-59
2022/02/16 10:09:29;;;;;;;9.95;7.53;;;384.40;2329.60;;;;;;4971595;28;20035;-59
2022/02/16 10:12:00;;;;;;;11.80;9.63;;;384.30;2329.60;;;;;;4971855;28;20381;-59
2022/02/16 10:14:32;;;;;;;15.32;12.50;;;384.60;2329.60;;;;;;4971779;28;20019;-58
2022/02/16 10:17:04;;;;;;;70.75;40.83;;;384.60;2329.60;;;;;;4971139;28;20031;-59
2022/02/16 10:20:09;;;;;;;37.22;24.85;;;384.70;2329.60;;;;;;4970510;28;20089;-59
2022/02/16 10:22:42;;;;;;;161.05;98.30;;;384.70;2329.60;;;;;;4912200;29;20028;-59
2022/02/16 10:25:17;;;;;;;27.83;21.20;;;384.90;2329.60;;;;;;4911971;29;20024;-59
2022/02/16 10:28:15;;;;;;;116.53;80.85;;;384.30;2329.60;;;;;;4911128;29;20040;-59
2022/02/16 10:30:57;;;;;;;64.18;51.47;;;384.60;2329.60;;;;;;4911866;29;20036;-59
2022/02/16 10:33:28;;;;;;;83.55;58.92;;;384.90;2329.60;;;;;;4911851;29;20032;-59
2022/02/16 10:36:05;;;;;;;59.65;43.30;;;384.90;2329.60;;;;;;4911773;29;20119;-58
2022/02/16 10:38:33;;;;;;;56.63;42.20;;;409.70;2355.20;;;;;;4911352;29;20024;-59
2022/02/16 10:41:07;;;;;;;29.92;22.70;;;409.90;2355.20;;;;;;4911568;29;20064;-59
2022/02/16 10:43:39;;;;;;;74.18;60.63;;;409.90;2355.20;;;;;;4911866;29;20032;-61
2022/02/16 10:46:30;;;;;;;30.15;24.10;;;410.20;2355.20;;;;;;4911981;29;20119;-58
2022/02/16 10:49:17;;;;;;;34.65;25.83;;;409.90;2355.20;;;;;;4911716;29;20040;-59
2022/02/16 10:51:46;;;;;;;28.65;22.35;;;410.30;2355.20;;;;;;4911989;29;20020;-59
2022/02/16 10:54:17;;;;;;;32.25;27.85;;;410.30;2355.20;;;;;;4963211;28;20523;-59
2022/02/16 10:56:45;;;;;;;60.25;53.67;;;384.90;2329.60;;;;;;4971424;28;20027;-60
2022/02/16 10:59:11;;;;;;;69.45;58.25;;;409.60;2355.20;;;;;;4970919;28;20477;-59
2022/02/16 11:01:38;;;;;;;49.00;36.40;;;409.90;2355.20;;;;;;4970853;28;20062;-60
2022/02/16 11:04:06;;;;;;;31.15;22.60;;;409.70;2355.20;;;;;;4971134;28;20489;-59
2022/02/16 11:06:38;;;;;;;27.75;21.63;;;384.50;2329.60;;;;;;4971492;28;20030;-59
2022/02/16 11:09:05;;;;;;;26.88;20.90;;;384.90;2329.60;;;;;;4971148;28;20039;-59
2022/02/16 11:11:31;;;;;;;31.02;23.50;;;409.80;2355.20;;;;;;4971002;28;20023;-59
2022/02/16 11:13:59;;;;;;;20.42;15.57;;;409.90;2355.20;;;;;;4953458;28;20178;-63
2022/02/16 11:16:26;;;;;;;21.17;16.88;;;384.80;2329.60;;;;;;4971121;28;20023;-59
2022/02/16 11:18:59;;;;;;;14.55;11.80;;;409.80;2355.20;;;;;;4971297;28;20123;-64
2022/02/16 11:21:28;;;;;;;23.60;18.25;;;409.60;2355.20;;;;;;4971072;28;20061;-59
2022/02/16 11:23:56;;;;;;;22.90;17.23;;;409.80;2355.20;;;;;;4970964;28;20070;-59
2022/02/16 11:26:30;;;;;;;12.50;10.75;;;409.90;2355.20;;;;;;4970669;28;20019;-59
2022/02/16 11:28:57;;;;;;;14.38;10.90;;;409.70;2355.20;;;;;;4970702;28;20035;-59
2022/02/16 11:31:33;;;;;;;18.20;15.30;;;409.70;2355.20;;;;;;4970861;28;20097;-59
2022/02/16 11:34:11;;;;;;;18.13;14.45;;;410.00;2355.20;;;;;;4970637;28;20490;-60
2022/02/16 11:37:05;;;;;;;30.33;25.25;;;410.00;2355.20;;;;;;4970946;28;20077;-59
2022/02/16 11:39:49;;;;;;;21.10;16.45;;;410.00;2355.20;;;;;;4974040;28;20023;-59
2022/02/16 11:42:21;;;;;;;26.05;22.98;;;409.70;2355.20;;;;;;4974425;28;20029;-60
2022/02/16 11:45:09;;;;;;;23.85;20.80;;;409.80;2355.20;;;;;;4974194;28;20437;-59
2022/02/16 11:47:45;;;;;;;23.52;16.55;;;410.10;2355.20;;;;;;4974175;28;20041;-59
2022/02/16 11:50:14;;;;;;;17.00;13.40;;;410.00;2355.20;;;;;;4973994;28;20610;-60
2022/02/16 11:52:51;;;;;;;22.00;17.45;;;410.20;2355.20;;;;;;4974274;28;20057;-59
2022/02/16 11:55:25;;;;;;;17.80;14.15;;;410.20;2355.20;;;;;;4974273;28;20769;-61
2022/02/16 11:57:52;;;;;;;24.95;19.05;;;409.80;2355.20;;;;;;4973984;28;20035;-59
2022/02/16 12:00:18;;;;;;;225.27;154.27;;;409.80;2355.20;;;;;;4973608;28;20517;-61
2022/02/16 12:02:56;;;;;;;26.25;19.25;;;409.70;2355.20;;;;;;4974102;28;20035;-59
2022/02/16 12:05:45;;;;;;;27.20;20.92;;;384.60;2329.60;;;;;;4973839;28;20027;-58